createdAt,value
2019-04-19T00:02:12.094Z,8.31
2019-04-19T00:04:51.628Z,8.26
2019-04-19T00:07:23.971Z,8.22
2019-04-19T00:10:02.361Z,8.06
2019-04-19T00:12:37.317Z,7.98
2019-04-19T00:15:01.713Z,7.97
2019-04-19T00:17:38.485Z,8.01
2019-04-19T00:20:33.757Z,8.00
2019-04-19T00:23:01.979Z,8.03
2019-04-19T00:25:20.317Z,8.06
2019-04-19T00:27:57.853Z,7.91
2019-04-19T00:30:38.750Z,7.97
2019-04-19T00:33:14.546Z,7.97
2019-04-19T00:35:36.761Z,7.94
2019-04-19T00:38:14.527Z,7.96
2019-04-19T00:41:10.939Z,7.83
2019-04-19T00:44:24.892Z,7.43
2019-04-19T00:47:02.542Z,7.41
2019-04-19T00:49:29.770Z,7.55
2019-04-19T00:55:15.967Z,7.30
2019-04-19T00:57:48.065Z,7.36
2019-04-19T01:00:18.757Z,7.41
2019-04-19T01:02:53.424Z,7.30
2019-04-19T01:05:30.428Z,7.35
2019-04-19T01:08:09.358Z,7.39
2019-04-19T01:10:46.738Z,7.37
2019-04-19T01:13:41.788Z,7.05
2019-04-19T01:16:45.481Z,7.01
2019-04-19T01:19:27.954Z,6.90
2019-04-19T01:22:32.747Z,6.87
2019-04-19T01:25:30.922Z,6.94
2019-04-19T01:28:33.732Z,6.86
2019-04-19T01:31:29.752Z,6.86
2019-04-19T01:34:32.133Z,6.90
2019-04-19T01:37:33.065Z,6.79
2019-04-19T01:41:01.724Z,6.77
2019-04-19T01:43:34.392Z,6.84
2019-04-19T01:46:31.296Z,6.90
2019-04-19T01:49:22.534Z,6.78
2019-04-19T01:52:36.655Z,6.78
2019-04-19T01:55:18.920Z,6.71
2019-04-19T01:58:17.488Z,6.73
2019-04-19T02:01:12.451Z,6.76
2019-04-19T02:03:43.679Z,6.69
2019-04-19T02:06:16.093Z,6.71
2019-04-19T02:08:58.584Z,6.68
2019-04-19T02:11:56.295Z,6.67
2019-04-19T02:14:50.626Z,6.66
2019-04-19T02:17:34.808Z,6.64
2019-04-19T02:20:20.163Z,6.73
2019-04-19T02:22:57.836Z,6.67
2019-04-19T02:25:29.333Z,6.64
2019-04-19T02:28:02.664Z,6.67
2019-04-19T02:30:47.989Z,6.60
2019-04-19T02:33:30.201Z,6.56
2019-04-19T02:36:16.404Z,6.44
2019-04-19T02:38:58.604Z,6.43
2019-04-19T02:41:53.860Z,6.36
2019-04-19T02:44:17.111Z,6.31
2019-04-19T02:47:06.536Z,6.36
2019-04-19T02:49:39.093Z,6.31
2019-04-19T02:52:11.408Z,6.45
2019-04-19T02:57:39.690Z,6.37
2019-04-19T03:00:58.977Z,6.51
2019-04-19T03:05:56.163Z,6.49
2019-04-19T03:08:10.479Z,6.49
2019-04-19T03:10:58.528Z,6.54
2019-04-19T03:13:51.810Z,6.56
2019-04-19T03:16:37.181Z,6.56
2019-04-19T03:19:10.996Z,6.54
2019-04-19T03:21:47.720Z,6.61
2019-04-19T03:24:18.988Z,6.61
2019-04-19T03:26:51.578Z,6.46
2019-04-19T03:29:22.327Z,6.59
2019-04-19T03:34:51.206Z,6.58
2019-04-19T03:37:06.462Z,6.42
2019-04-19T03:39:48.177Z,6.46
2019-04-19T03:42:41.084Z,6.22
2019-04-19T03:45:12.843Z,6.21
2019-04-19T03:47:54.683Z,6.19
2019-04-19T03:50:21.836Z,6.10
2019-04-19T03:52:58.678Z,6.15
2019-04-19T03:55:32.453Z,6.17
2019-04-19T03:57:54.068Z,6.15
2019-04-19T04:00:21.619Z,6.20
2019-04-19T04:02:54.311Z,6.24
2019-04-19T04:05:30.332Z,6.24
2019-04-19T04:08:17.727Z,6.24
2019-04-19T04:10:54.078Z,6.31
2019-04-19T04:13:46.186Z,6.35
2019-04-19T04:16:24.017Z,6.38
2019-04-19T04:18:49.330Z,6.33
2019-04-19T04:21:28.376Z,6.28
2019-04-19T04:24:06.349Z,6.25
2019-04-19T04:26:38.627Z,6.22
2019-04-19T04:29:12.096Z,6.22
2019-04-19T04:31:48.369Z,6.36
2019-04-19T04:34:29.244Z,6.38
2019-04-19T04:37:04.850Z,6.41
2019-04-19T04:39:19.659Z,6.39
2019-04-19T04:42:05.667Z,6.42
2019-04-19T04:44:50.476Z,6.42
2019-04-19T04:47:31.387Z,6.52
2019-04-19T04:50:28.891Z,6.52
2019-04-19T04:52:49.443Z,6.45
2019-04-19T04:55:54.910Z,6.50
2019-04-19T04:58:25.560Z,6.49
2019-04-19T05:00:58.917Z,6.51
2019-04-19T05:03:43.316Z,6.55
2019-04-19T05:06:24.657Z,6.57
2019-04-19T05:08:56.278Z,6.58
2019-04-19T05:11:32.793Z,6.72
2019-04-19T05:14:09.754Z,6.77
2019-04-19T05:16:46.819Z,6.72
2019-04-19T05:19:12.740Z,6.70
2019-04-19T05:21:47.030Z,6.64
2019-04-19T05:24:21.021Z,6.78
2019-04-19T05:27:07.305Z,6.82
2019-04-19T05:29:22.741Z,6.78
2019-04-19T05:31:51.266Z,6.86
2019-04-19T05:34:42.742Z,6.99
2019-04-19T05:37:14.156Z,7.09
2019-04-19T05:40:02.141Z,7.13
2019-04-19T05:42:47.018Z,7.31
2019-04-19T05:45:36.704Z,7.22
2019-04-19T05:47:55.885Z,7.28
2019-04-19T05:50:35.997Z,7.43
2019-04-19T05:53:07.985Z,7.45
2019-04-19T05:55:28.001Z,7.45
2019-04-19T05:58:13.318Z,7.50
2019-04-19T06:00:53.841Z,7.54
2019-04-19T06:03:21.150Z,7.60
2019-04-19T06:06:14.407Z,7.66
2019-04-19T06:08:27.870Z,7.83
2019-04-19T06:11:03.050Z,7.93
2019-04-19T06:13:38.229Z,8.07
2019-04-19T06:16:25.993Z,8.34
2019-04-19T06:18:57.104Z,8.47
2019-04-19T06:21:32.699Z,8.62
2019-04-19T06:24:16.770Z,8.75
2019-04-19T06:27:00.882Z,8.71
2019-04-19T06:29:28.028Z,8.79
2019-04-19T06:31:57.204Z,8.95
2019-04-19T06:34:31.987Z,9.06
2019-04-19T06:36:57.379Z,9.18
2019-04-19T06:39:20.514Z,9.43
2019-04-19T06:42:00.106Z,9.65
2019-04-19T06:44:54.062Z,9.86
2019-04-19T06:47:11.373Z,10.06
2019-04-19T06:49:36.370Z,10.24
2019-04-19T06:52:17.985Z,10.45
2019-04-19T06:54:46.391Z,10.45
2019-04-19T06:57:27.305Z,10.70
2019-04-19T07:00:07.554Z,10.68
2019-04-19T07:02:26.255Z,10.97
2019-04-19T07:05:15.443Z,11.06
2019-04-19T07:08:03.239Z,11.12
2019-04-19T07:13:08.999Z,11.41
2019-04-19T07:15:51.280Z,11.53
2019-04-19T07:18:11.839Z,11.60
2019-04-19T07:20:47.128Z,12.16
2019-04-19T07:23:16.149Z,12.34
2019-04-19T07:28:20.405Z,12.44
2019-04-19T07:30:55.416Z,12.63
2019-04-19T07:33:38.696Z,12.79
2019-04-19T07:36:19.059Z,13.05
2019-04-19T07:38:54.055Z,13.42
2019-04-19T07:41:21.471Z,13.37
2019-04-19T07:44:16.088Z,13.44
2019-04-19T07:47:06.809Z,13.49
2019-04-19T07:49:25.238Z,13.63
2019-04-19T07:52:11.551Z,13.67
2019-04-19T07:54:38.659Z,13.79
2019-04-19T07:57:44.544Z,13.83
2019-04-19T08:00:09.844Z,13.95
2019-04-19T08:02:49.785Z,14.06
2019-04-19T08:05:26.719Z,14.26
2019-04-19T08:15:54.670Z,14.41
2019-04-19T08:18:27.695Z,14.59
2019-04-19T08:28:24.700Z,15.17
2019-04-19T08:30:52.833Z,15.00
2019-04-19T08:33:21.021Z,15.07
2019-04-19T08:35:57.099Z,15.14
2019-04-19T08:38:29.542Z,15.25
2019-04-19T08:41:14.898Z,15.28
2019-04-19T08:43:58.271Z,15.52
2019-04-19T08:46:30.521Z,15.61
2019-04-19T08:49:28.404Z,15.63
2019-04-19T08:52:08.420Z,15.69
2019-04-19T08:54:58.925Z,15.69
2019-04-19T08:57:19.018Z,15.89
2019-04-19T09:00:18.482Z,15.93
2019-04-19T09:02:42.896Z,16.18
2019-04-19T09:05:18.469Z,15.93
2019-04-19T09:08:07.820Z,15.98
2019-04-19T09:13:13.974Z,16.27
2019-04-19T09:15:37.488Z,16.19
2019-04-19T09:18:35.056Z,16.29
2019-04-19T09:20:50.812Z,16.38
2019-04-19T09:23:26.026Z,16.57
2019-04-19T09:26:04.603Z,16.74
2019-04-19T09:31:15.995Z,16.84
2019-04-19T09:33:33.084Z,17.08
2019-04-19T09:36:08.355Z,17.07
2019-04-19T09:38:57.073Z,17.03
2019-04-19T09:41:24.616Z,17.14
2019-04-19T09:44:01.741Z,17.22
2019-04-19T09:46:23.532Z,17.35
2019-04-19T09:49:12.968Z,17.50
2019-04-19T09:51:51.222Z,17.50
2019-04-19T09:54:34.727Z,17.53
2019-04-19T09:56:57.984Z,17.66
2019-04-19T09:59:25.855Z,17.60
2019-04-19T10:01:57.742Z,17.75
2019-04-19T10:04:29.692Z,17.73
2019-04-19T10:07:04.982Z,17.90
2019-04-19T10:09:42.772Z,17.94
2019-04-19T10:12:21.584Z,17.97
2019-04-19T10:14:56.174Z,18.02
2019-04-19T10:17:28.735Z,17.88
2019-04-19T10:20:02.849Z,18.16
2019-04-19T10:22:34.918Z,18.26
2019-04-19T10:25:09.177Z,18.44
2019-04-19T10:27:43.069Z,18.72
2019-04-19T10:30:36.408Z,18.62
2019-04-19T10:33:11.122Z,18.63
2019-04-19T10:39:25.904Z,18.86
2019-04-19T10:41:59.317Z,18.67
2019-04-19T10:44:32.008Z,18.68
2019-04-19T10:47:05.142Z,18.78
2019-04-19T10:49:45.842Z,18.96
2019-04-19T10:52:37.295Z,18.95
2019-04-19T10:55:10.581Z,18.73
2019-04-19T10:57:45.260Z,18.85
2019-04-19T11:00:19.628Z,19.03
2019-04-19T11:02:54.799Z,19.00
2019-04-19T11:05:29.554Z,19.16
2019-04-19T11:08:01.964Z,19.27
2019-04-19T11:10:37.843Z,18.94
2019-04-19T11:13:10.715Z,19.12
2019-04-19T11:15:44.564Z,18.99
2019-04-19T11:18:17.540Z,19.04
2019-04-19T11:20:52.813Z,19.35
2019-04-19T11:23:23.932Z,19.34
2019-04-19T11:25:56.884Z,19.26
2019-04-19T11:28:29.186Z,19.37
2019-04-19T11:31:19.196Z,19.50
2019-04-19T11:33:53.167Z,19.52
2019-04-19T11:36:26.006Z,19.21
2019-04-19T11:38:58.984Z,19.45
2019-04-19T11:41:33.321Z,19.49
2019-04-19T11:44:13.892Z,19.94
2019-04-19T11:46:42.279Z,19.91
2019-04-19T11:49:28.562Z,20.12
2019-04-19T11:51:51.100Z,20.37
2019-04-19T11:54:28.256Z,20.42
2019-04-19T11:57:06.341Z,20.30
2019-04-19T11:59:57.818Z,20.26
2019-04-19T12:02:39.924Z,20.31
2019-04-19T12:05:21.092Z,20.32
2019-04-19T12:07:50.531Z,20.25
2019-04-19T12:10:24.243Z,20.29
2019-04-19T12:12:59.271Z,20.27
2019-04-19T12:15:34.313Z,20.62
2019-04-19T12:18:08.548Z,20.69
2019-04-19T12:20:42.936Z,20.74
2019-04-19T12:23:15.856Z,21.06
2019-04-19T12:25:51.279Z,21.26
2019-04-19T12:28:25.781Z,21.62
2019-04-19T12:30:58.768Z,21.33
2019-04-19T12:33:33.366Z,21.03
2019-04-19T12:36:07.451Z,21.05
2019-04-19T12:38:41.936Z,21.18
2019-04-19T12:41:16.280Z,21.14
2019-04-19T12:43:52.057Z,21.40
2019-04-19T12:46:26.052Z,21.30
2019-04-19T12:49:00.461Z,21.42
2019-04-19T12:51:34.536Z,21.58
2019-04-19T12:54:10.110Z,21.44
2019-04-19T12:56:42.230Z,21.41
2019-04-19T12:59:17.263Z,21.55
2019-04-19T13:02:09.607Z,21.68
2019-04-19T13:05:00.304Z,21.71
2019-04-19T13:07:36.302Z,21.83
2019-04-19T13:10:09.297Z,21.97
2019-04-19T13:12:44.028Z,21.73
2019-04-19T13:15:17.792Z,21.91
2019-04-19T13:17:49.716Z,21.71
2019-04-19T13:20:30.394Z,21.47
2019-04-19T13:22:59.622Z,21.58
2019-04-19T13:25:33.322Z,21.30
2019-04-19T13:28:08.051Z,21.54
2019-04-19T13:30:46.125Z,21.77
2019-04-19T13:33:16.173Z,21.85
2019-04-19T13:35:48.858Z,21.63
2019-04-19T13:38:27.501Z,21.85
2019-04-19T13:41:19.044Z,21.63
2019-04-19T13:43:51.043Z,21.65
2019-04-19T13:46:24.556Z,21.59
2019-04-19T13:48:56.861Z,21.61
2019-04-19T13:51:28.590Z,21.72
2019-04-19T13:54:02.877Z,21.94
2019-04-19T13:56:36.454Z,22.09
2019-04-19T13:59:09.802Z,22.06
2019-04-19T14:01:42.910Z,22.07
2019-04-19T14:04:17.841Z,22.08
2019-04-19T14:06:50.632Z,22.02
2019-04-19T14:09:25.208Z,22.03
2019-04-19T14:11:58.543Z,21.79
2019-04-19T14:14:35.002Z,22.04
2019-04-19T14:17:11.809Z,22.15
2019-04-19T14:19:46.941Z,22.41
2019-04-19T14:22:23.423Z,22.35
2019-04-19T14:24:55.968Z,22.51
2019-04-19T14:27:29.094Z,22.35
2019-04-19T14:30:05.487Z,22.58
2019-04-19T14:32:39.324Z,22.64
2019-04-19T14:35:16.146Z,22.81
2019-04-19T14:37:48.216Z,22.88
2019-04-19T14:40:21.611Z,22.68
2019-04-19T14:42:54.398Z,22.85
2019-04-19T14:45:30.422Z,22.91
2019-04-19T14:48:03.007Z,22.97
2019-04-19T14:50:48.568Z,23.01
2019-04-19T14:53:12.292Z,22.79
2019-04-19T14:55:45.800Z,22.68
2019-04-19T14:58:18.021Z,22.79
2019-04-19T15:01:08.923Z,22.48
2019-04-19T15:03:43.709Z,22.59
2019-04-19T15:06:15.533Z,22.29
2019-04-19T15:08:48.157Z,22.45
2019-04-19T15:11:21.411Z,22.57
2019-04-19T15:13:57.063Z,22.52
2019-04-19T15:16:29.084Z,22.35
2019-04-19T15:19:04.404Z,22.44
2019-04-19T15:21:36.365Z,22.48
2019-04-19T15:24:08.595Z,22.47
2019-04-19T15:26:41.251Z,22.26
2019-04-19T15:29:14.326Z,22.02
2019-04-19T15:31:48.605Z,22.25
2019-04-19T15:34:22.016Z,22.40
2019-04-19T15:36:53.615Z,22.38
2019-04-19T15:39:26.198Z,22.05
2019-04-19T15:42:00.216Z,22.17
2019-04-19T15:44:32.818Z,21.70
2019-04-19T15:47:06.501Z,21.86
2019-04-19T15:49:38.309Z,21.74
2019-04-19T15:52:10.287Z,22.16
2019-04-19T15:54:41.838Z,22.38
2019-04-19T15:57:14.358Z,22.57
2019-04-19T15:59:49.617Z,22.52
2019-04-19T16:02:36.054Z,22.66
2019-04-19T16:05:40.067Z,22.27
2019-04-19T16:08:20.517Z,22.12
2019-04-19T16:11:18.570Z,22.38
2019-04-19T16:13:52.168Z,22.61
2019-04-19T16:16:25.418Z,22.44
2019-04-19T16:19:00.940Z,22.14
2019-04-19T16:21:40.945Z,22.11
2019-04-19T16:24:07.105Z,21.91
2019-04-19T16:26:41.473Z,21.97
2019-04-19T16:29:24.225Z,22.06
2019-04-19T16:31:48.753Z,21.77
2019-04-19T16:34:20.884Z,21.87
2019-04-19T16:36:54.146Z,21.62
2019-04-19T16:39:30.134Z,21.43
2019-04-19T16:42:02.974Z,21.65
2019-04-19T16:44:36.286Z,21.40
2019-04-19T16:47:09.093Z,21.50
2019-04-19T16:49:42.686Z,21.51
2019-04-19T16:52:16.546Z,21.39
2019-04-19T16:54:50.529Z,21.23
2019-04-19T16:57:26.732Z,21.31
2019-04-19T16:59:57.734Z,21.40
2019-04-19T17:02:29.363Z,21.20
2019-04-19T17:05:01.250Z,20.58
2019-04-19T17:07:35.082Z,20.34
2019-04-19T17:10:09.904Z,20.31
2019-04-19T17:12:45.648Z,19.85
2019-04-19T17:15:29.837Z,20.02
2019-04-19T17:18:30.410Z,19.62
2019-04-19T17:21:07.857Z,19.62
2019-04-19T17:23:42.921Z,19.51
2019-04-19T17:26:17.133Z,19.45
2019-04-19T17:28:50.670Z,19.27
2019-04-19T17:31:26.461Z,19.18
2019-04-19T17:34:00.191Z,19.12
2019-04-19T17:36:33.067Z,18.96
2019-04-19T17:39:09.045Z,18.83
2019-04-19T17:41:43.036Z,18.75
2019-04-19T17:44:15.525Z,18.55
2019-04-19T17:46:48.821Z,18.41
2019-04-19T17:49:20.947Z,18.30
2019-04-19T17:52:01.886Z,18.13
2019-04-19T17:54:50.831Z,18.05
2019-04-19T17:57:05.155Z,17.72
2019-04-19T17:59:38.344Z,17.84
2019-04-19T18:02:13.005Z,17.75
2019-04-19T18:04:46.243Z,17.46
2019-04-19T18:07:18.917Z,17.13
2019-04-19T18:09:55.483Z,17.08
2019-04-19T18:12:25.326Z,17.02
2019-04-19T18:14:56.888Z,16.97
2019-04-19T18:17:28.875Z,16.84
2019-04-19T18:20:09.612Z,16.60
2019-04-19T18:22:55.603Z,16.45
2019-04-19T18:25:15.908Z,16.43
2019-04-19T18:27:53.103Z,16.10
2019-04-19T18:30:24.340Z,15.98
2019-04-19T18:33:00.466Z,15.96
2019-04-19T18:35:33.868Z,15.85
2019-04-19T18:38:17.073Z,15.77
2019-04-19T18:40:45.196Z,15.73
2019-04-19T18:43:30.620Z,15.65
2019-04-19T18:45:57.009Z,15.56
2019-04-19T18:48:29.740Z,15.59
2019-04-19T18:51:02.476Z,15.46
2019-04-19T18:53:43.506Z,15.28
2019-04-19T18:56:17.210Z,15.05
2019-04-19T18:58:45.342Z,14.98
2019-04-19T19:01:27.191Z,14.85
2019-04-19T19:03:55.985Z,14.72
2019-04-19T19:06:34.991Z,14.62
2019-04-19T19:09:09.129Z,14.45
2019-04-19T19:11:38.093Z,14.30
2019-04-19T19:14:15.114Z,14.24
2019-04-19T19:16:53.936Z,14.13
2019-04-19T19:19:28.273Z,14.00
2019-04-19T19:22:02.321Z,13.67
2019-04-19T19:24:52.466Z,13.45
2019-04-19T19:27:16.721Z,13.39
2019-04-19T19:29:46.011Z,13.29
2019-04-19T19:32:20.942Z,13.22
2019-04-19T19:35:00.777Z,13.14
2019-04-19T19:37:29.837Z,13.15
2019-04-19T19:42:05.728Z,13.06
2019-04-19T19:42:56.084Z,13.20
2019-04-19T19:45:29.525Z,13.12
2019-04-19T19:48:12.720Z,13.02
2019-04-19T19:50:54.253Z,13.15
2019-04-19T19:53:25.546Z,13.11
2019-04-19T19:55:54.830Z,13.27
2019-04-19T19:58:20.919Z,13.03
2019-04-19T20:01:04.441Z,13.06
2019-04-19T20:03:26.431Z,13.04
2019-04-19T20:05:58.052Z,12.73
2019-04-19T20:08:32.188Z,12.54
2019-04-19T20:10:59.553Z,12.66
2019-04-19T20:13:41.103Z,12.44
2019-04-19T20:16:08.254Z,12.42
2019-04-19T20:18:45.756Z,12.41
2019-04-19T20:21:19.913Z,12.41
2019-04-19T20:24:04.439Z,12.16
2019-04-19T20:26:33.717Z,12.26
2019-04-19T20:29:08.566Z,12.29
2019-04-19T20:31:39.143Z,12.23
2019-04-19T20:34:16.901Z,12.16
2019-04-19T20:36:47.189Z,12.05
2019-04-19T20:39:24.963Z,12.06
2019-04-19T20:42:00.132Z,12.05
2019-04-19T20:44:43.231Z,12.02
2019-04-19T20:47:02.098Z,11.86
2019-04-19T20:49:41.346Z,11.84
2019-04-19T20:52:25.067Z,11.51
2019-04-19T20:55:11.536Z,11.19
2019-04-19T20:57:42.680Z,11.12
2019-04-19T21:00:06.088Z,11.00
2019-04-19T21:02:42.236Z,10.89
2019-04-19T21:05:13.632Z,10.87
2019-04-19T21:07:54.141Z,10.94
2019-04-19T21:10:20.912Z,10.92
2019-04-19T21:12:55.620Z,10.83
2019-04-19T21:15:34.914Z,10.78
2019-04-19T21:18:05.389Z,10.82
2019-04-19T21:20:40.575Z,10.94
2019-04-19T21:23:21.353Z,10.69
2019-04-19T21:25:53.568Z,10.78
2019-04-19T21:28:24.210Z,10.72
2019-04-19T21:30:57.819Z,10.59
2019-04-19T21:33:28.815Z,10.56
2019-04-19T21:36:06.150Z,10.41
2019-04-19T21:38:36.425Z,10.25
2019-04-19T21:41:18.852Z,10.32
2019-04-19T21:43:47.780Z,10.45
2019-04-19T21:46:25.988Z,10.41
2019-04-19T21:48:55.488Z,10.52
2019-04-19T21:51:34.633Z,10.55
2019-04-19T21:54:06.415Z,10.47
2019-04-19T21:56:44.476Z,10.45
2019-04-19T21:59:22.767Z,10.44
2019-04-19T22:01:55.044Z,10.41
2019-04-19T22:04:29.661Z,10.48
2019-04-19T22:07:08.743Z,10.54
2019-04-19T22:09:47.569Z,10.57
2019-04-19T22:12:16.561Z,10.61
2019-04-19T22:14:50.804Z,10.47
2019-04-19T22:17:24.977Z,10.60
2019-04-19T22:20:08.232Z,10.36
2019-04-19T22:22:35.310Z,10.24
2019-04-19T22:25:13.423Z,10.16
2019-04-19T22:27:45.298Z,10.19
2019-04-19T22:30:18.020Z,10.25
2019-04-19T22:32:55.465Z,10.12
2019-04-19T22:35:28.681Z,10.03
2019-04-19T22:38:07.154Z,10.10
2019-04-19T22:40:40.837Z,9.84
2019-04-19T22:43:15.107Z,9.80
2019-04-19T22:45:48.965Z,9.83
2019-04-19T22:48:22.904Z,9.78
2019-04-19T22:50:58.250Z,9.78
2019-04-19T22:53:35.319Z,9.70
2019-04-19T22:56:16.994Z,9.68
2019-04-19T22:58:40.206Z,9.69
2019-04-19T23:01:27.950Z,9.62
2019-04-19T23:04:09.762Z,9.67
2019-04-19T23:06:36.600Z,9.47
2019-04-19T23:09:12.076Z,9.57
2019-04-19T23:11:43.887Z,9.51
2019-04-19T23:14:21.059Z,9.47
2019-04-19T23:16:58.119Z,9.37
2019-04-19T23:19:32.014Z,9.37
2019-04-19T23:22:02.927Z,9.22
2019-04-19T23:24:44.878Z,9.10
2019-04-19T23:27:25.408Z,9.17
2019-04-19T23:29:46.594Z,9.18
2019-04-19T23:32:23.915Z,9.20
2019-04-19T23:34:54.202Z,9.08
2019-04-19T23:37:26.487Z,8.85
2019-04-19T23:40:01.327Z,8.98
2019-04-19T23:42:37.179Z,8.80
2019-04-19T23:45:08.283Z,8.76
2019-04-19T23:47:46.448Z,8.78
2019-04-19T23:50:21.406Z,8.70
2019-04-19T23:52:54.660Z,8.63
2019-04-19T23:55:24.833Z,8.57
2019-04-19T23:58:01.326Z,8.56
